createdAt,value
2023-01-15T00:02:03.030Z,67.80
2023-01-15T00:04:39.015Z,68.20
2023-01-15T00:07:09.750Z,67.90
2023-01-15T00:09:39.039Z,67.90
2023-01-15T00:12:10.664Z,68.00
2023-01-15T00:14:41.189Z,68.10
2023-01-15T00:17:13.035Z,68.20
2023-01-15T00:19:44.950Z,68.30
2023-01-15T00:22:13.879Z,67.70
2023-01-15T00:25:18.964Z,68.50
2023-01-15T00:27:52.712Z,68.20
2023-01-15T00:30:24.460Z,68.50
2023-01-15T00:33:04.737Z,68.60
2023-01-15T00:35:40.613Z,69.20
2023-01-15T00:38:14.981Z,69.10
2023-01-15T00:40:57.184Z,68.50
2023-01-15T00:43:36.706Z,68.80
2023-01-15T00:46:18.776Z,68.90
2023-01-15T00:48:55.301Z,68.20
2023-01-15T00:51:38.462Z,67.80
2023-01-15T00:54:15.030Z,68.00
2023-01-15T00:56:51.893Z,67.80
2023-01-15T00:59:29.544Z,68.10
2023-01-15T01:02:12.471Z,67.80
2023-01-15T01:04:49.014Z,68.00
2023-01-15T01:07:20.145Z,68.20
2023-01-15T01:09:53.641Z,67.80
2023-01-15T01:12:33.736Z,68.30
2023-01-15T01:15:15.282Z,68.90
2023-01-15T01:17:55.501Z,68.10
2023-01-15T01:20:44.745Z,68.00
2023-01-15T01:23:27.373Z,68.30
2023-01-15T01:26:03.251Z,68.00
2023-01-15T01:28:36.720Z,68.20
2023-01-15T01:31:09.131Z,68.30
2023-01-15T01:33:42.642Z,68.20
2023-01-15T01:36:13.545Z,68.20
2023-01-15T01:38:53.434Z,67.90
2023-01-15T01:41:30.428Z,68.40
2023-01-15T01:44:08.647Z,68.10
2023-01-15T01:46:48.395Z,68.10
2023-01-15T01:49:25.049Z,68.30
2023-01-15T01:52:00.354Z,68.10
2023-01-15T01:54:48.761Z,68.20
2023-01-15T01:57:17.948Z,67.90
2023-01-15T02:00:02.103Z,68.00
2023-01-15T02:02:48.535Z,68.20
2023-01-15T02:05:35.167Z,67.80
2023-01-15T02:08:06.293Z,67.90
2023-01-15T02:10:43.427Z,67.80
2023-01-15T02:13:34.139Z,68.50
2023-01-15T02:16:10.881Z,68.20
2023-01-15T02:18:47.664Z,68.10
2023-01-15T02:21:30.927Z,68.00
2023-01-15T02:24:15.141Z,68.20
2023-01-15T02:27:17.267Z,68.10
2023-01-15T02:30:03.888Z,68.00
2023-01-15T02:32:49.823Z,68.20
2023-01-15T02:35:37.480Z,68.30
2023-01-15T02:38:17.000Z,68.60
2023-01-15T02:41:05.573Z,68.40
2023-01-15T02:43:54.844Z,68.60
2023-01-15T02:46:37.337Z,68.40
2023-01-15T02:49:26.664Z,68.30
2023-01-15T02:52:08.413Z,68.60
2023-01-15T02:54:46.329Z,68.50
2023-01-15T02:57:43.026Z,68.60
2023-01-15T03:00:23.538Z,68.70
2023-01-15T03:03:06.160Z,69.00
2023-01-15T03:05:49.822Z,69.00
2023-01-15T03:08:31.389Z,69.40
2023-01-15T03:11:12.767Z,69.20
2023-01-15T03:13:52.135Z,69.40
2023-01-15T03:16:38.200Z,69.30
2023-01-15T03:22:11.488Z,69.40
2023-01-15T03:24:58.202Z,69.40
2023-01-15T03:28:00.678Z,69.40
2023-01-15T03:30:46.864Z,69.40
2023-01-15T03:33:21.306Z,69.40
2023-01-15T03:36:00.168Z,69.60
2023-01-15T03:38:36.785Z,69.70
2023-01-15T03:41:17.392Z,69.50
2023-01-15T03:44:03.209Z,69.50
2023-01-15T03:46:51.389Z,69.40
2023-01-15T03:49:35.428Z,69.50
2023-01-15T03:52:31.590Z,69.60
2023-01-15T03:55:22.477Z,69.80
2023-01-15T03:58:21.385Z,69.80
2023-01-15T04:01:02.901Z,70.00
2023-01-15T04:03:44.485Z,70.30
2023-01-15T04:06:38.437Z,70.20
2023-01-15T04:09:19.096Z,70.00
2023-01-15T04:12:01.915Z,70.00
2023-01-15T04:14:41.745Z,70.30
2023-01-15T04:17:19.567Z,70.10
2023-01-15T04:19:51.507Z,69.90
2023-01-15T04:22:28.700Z,70.00
2023-01-15T04:25:00.043Z,70.10
2023-01-15T04:27:37.338Z,70.00
2023-01-15T04:30:11.768Z,70.30
2023-01-15T04:32:51.202Z,70.60
2023-01-15T04:35:27.082Z,70.30
2023-01-15T04:38:00.805Z,70.00
2023-01-15T04:40:52.004Z,70.20
2023-01-15T04:43:59.087Z,70.40
2023-01-15T04:46:41.374Z,70.10
2023-01-15T04:49:38.252Z,70.30
2023-01-15T04:52:17.601Z,70.60
2023-01-15T04:54:58.234Z,70.50
2023-01-15T04:57:45.655Z,70.40
2023-01-15T05:00:25.651Z,70.80
2023-01-15T05:02:57.941Z,70.40
2023-01-15T05:05:32.723Z,70.80
2023-01-15T05:08:15.572Z,71.10
2023-01-15T05:10:57.030Z,71.20
2023-01-15T05:13:35.676Z,71.20
2023-01-15T05:16:18.574Z,71.30
2023-01-15T05:19:02.649Z,71.30
2023-01-15T05:21:39.496Z,71.40
2023-01-15T05:24:15.949Z,71.50
2023-01-15T05:26:58.495Z,71.50
2023-01-15T05:29:39.327Z,71.50
2023-01-15T05:32:20.898Z,71.60
2023-01-15T05:34:54.756Z,71.80
2023-01-15T05:37:31.746Z,71.70
2023-01-15T05:40:04.493Z,71.90
2023-01-15T05:42:42.497Z,71.70
2023-01-15T05:45:21.223Z,71.70
2023-01-15T05:48:04.272Z,71.90
2023-01-15T05:50:33.565Z,72.10
2023-01-15T05:53:09.828Z,72.30
2023-01-15T05:55:38.985Z,72.30
2023-01-15T05:58:14.919Z,72.30
2023-01-15T06:04:58.423Z,72.00
2023-01-15T06:07:41.223Z,72.10
2023-01-15T06:10:17.267Z,72.20
2023-01-15T06:12:46.207Z,72.10
2023-01-15T06:15:27.999Z,72.10
2023-01-15T06:18:03.003Z,71.80
2023-01-15T06:20:38.053Z,71.70
2023-01-15T06:23:06.831Z,72.10
2023-01-15T06:25:38.956Z,72.10
2023-01-15T06:28:11.626Z,72.00
2023-01-15T06:30:43.134Z,72.10
2023-01-15T06:33:14.435Z,72.20
2023-01-15T06:35:45.971Z,72.20
2023-01-15T06:38:21.035Z,72.00
2023-01-15T06:40:54.684Z,72.30
2023-01-15T06:43:44.531Z,72.40
2023-01-15T06:46:38.973Z,72.70
2023-01-15T06:49:16.228Z,73.30
2023-01-15T06:51:48.331Z,73.80
2023-01-15T06:54:22.298Z,73.80
2023-01-15T06:56:56.239Z,72.80
2023-01-15T06:59:29.772Z,72.60
2023-01-15T07:02:10.786Z,72.80
2023-01-15T07:04:44.815Z,73.20
2023-01-15T07:07:13.715Z,73.60
2023-01-15T07:09:52.258Z,74.90
2023-01-15T07:12:24.839Z,74.90
2023-01-15T07:14:58.867Z,74.80
2023-01-15T07:17:33.749Z,75.20
2023-01-15T07:20:06.790Z,75.30
2023-01-15T07:22:39.766Z,75.60
2023-01-15T07:25:13.453Z,75.90
2023-01-15T07:27:42.236Z,75.80
2023-01-15T07:30:30.531Z,75.90
2023-01-15T07:33:07.559Z,75.50
2023-01-15T07:35:39.725Z,76.10
2023-01-15T07:38:11.165Z,76.10
2023-01-15T07:40:44.173Z,76.40
2023-01-15T07:43:31.670Z,76.30
2023-01-15T07:46:20.639Z,76.30
2023-01-15T07:49:12.672Z,76.30
2023-01-15T07:51:50.384Z,76.50
2023-01-15T07:54:25.866Z,76.30
2023-01-15T07:57:29.695Z,76.80
2023-01-15T08:00:04.719Z,76.50
2023-01-15T08:02:42.471Z,76.90
2023-01-15T08:05:13.098Z,77.10
2023-01-15T08:07:53.019Z,77.10
2023-01-15T08:10:33.153Z,77.10
2023-01-15T08:13:49.064Z,77.30
2023-01-15T08:16:23.664Z,77.30
2023-01-15T08:18:59.497Z,76.90
2023-01-15T08:21:40.741Z,77.30
2023-01-15T08:24:16.171Z,77.40
2023-01-15T08:29:55.860Z,77.00
2023-01-15T08:32:35.260Z,77.10
2023-01-15T08:35:08.815Z,77.30
2023-01-15T08:38:08.762Z,77.10
2023-01-15T08:40:55.113Z,77.20
2023-01-15T08:43:26.744Z,77.20
2023-01-15T08:46:07.994Z,77.60
2023-01-15T08:49:06.616Z,77.60
2023-01-15T08:51:42.647Z,77.50
2023-01-15T08:54:20.107Z,77.60
2023-01-15T08:56:56.697Z,77.70
2023-01-15T08:59:39.720Z,77.70
2023-01-15T09:02:09.887Z,77.90
2023-01-15T09:04:42.203Z,77.60
2023-01-15T09:07:19.374Z,77.40
2023-01-15T09:09:57.959Z,77.50
2023-01-15T09:12:40.765Z,77.40
2023-01-15T09:15:23.679Z,77.50
2023-01-15T09:18:13.497Z,77.50
2023-01-15T09:20:57.228Z,77.60
2023-01-15T09:23:46.004Z,77.50
2023-01-15T09:26:55.491Z,78.10
2023-01-15T09:29:32.514Z,77.70
2023-01-15T09:32:10.601Z,77.90
2023-01-15T09:35:00.955Z,77.80
2023-01-15T09:37:35.068Z,77.60
2023-01-15T09:40:26.585Z,78.00
2023-01-15T09:43:16.186Z,77.80
2023-01-15T09:46:03.782Z,77.80
2023-01-15T09:49:02.239Z,77.80
2023-01-15T09:51:39.598Z,77.80
2023-01-15T09:54:39.532Z,77.80
2023-01-15T09:57:19.357Z,77.80
2023-01-15T10:00:36.677Z,78.00
2023-01-15T10:04:00.400Z,77.80
2023-01-15T10:06:55.386Z,77.90
2023-01-15T10:09:37.391Z,77.90
2023-01-15T10:12:33.460Z,78.00
2023-01-15T10:15:28.182Z,77.90
2023-01-15T10:18:36.023Z,77.90
2023-01-15T10:21:20.562Z,78.20
2023-01-15T10:27:40.746Z,77.80
2023-01-15T10:30:33.516Z,77.70
2023-01-15T10:33:47.267Z,77.90
2023-01-15T10:36:40.555Z,77.90
2023-01-15T10:39:23.853Z,77.80
2023-01-15T10:42:13.120Z,78.10
2023-01-15T10:45:20.822Z,77.60
2023-01-15T10:48:32.308Z,77.70
2023-01-15T10:51:18.125Z,77.80
2023-01-15T10:53:51.726Z,77.00
2023-01-15T10:56:33.157Z,76.90
2023-01-15T10:59:12.639Z,76.80
2023-01-15T11:01:41.914Z,76.30
2023-01-15T11:04:13.368Z,75.80
2023-01-15T11:06:42.517Z,75.40
2023-01-15T11:09:28.720Z,75.30
2023-01-15T11:12:25.463Z,74.60
2023-01-15T11:15:12.069Z,74.30
2023-01-15T11:18:03.413Z,74.30
2023-01-15T11:20:36.828Z,73.70
2023-01-15T11:23:10.345Z,73.70
2023-01-15T11:25:44.893Z,73.80
2023-01-15T11:28:15.832Z,73.70
2023-01-15T11:30:45.724Z,73.60
2023-01-15T11:33:24.297Z,73.00
2023-01-15T11:35:58.466Z,72.80
2023-01-15T11:38:32.163Z,72.70
2023-01-15T11:41:05.427Z,72.80
2023-01-15T11:43:55.203Z,72.30
2023-01-15T11:46:47.019Z,72.00
2023-01-15T11:49:36.679Z,71.70
2023-01-15T11:52:08.192Z,71.90
2023-01-15T11:54:42.753Z,72.00
2023-01-15T11:57:24.139Z,71.80
2023-01-15T11:59:54.362Z,71.70
2023-01-15T12:02:32.553Z,71.90
2023-01-15T12:05:13.699Z,71.40
2023-01-15T12:07:42.145Z,71.10
2023-01-15T12:10:47.827Z,71.10
2023-01-15T12:13:26.721Z,70.00
2023-01-15T12:16:03.686Z,70.70
2023-01-15T12:18:56.027Z,69.70
2023-01-15T12:22:00.369Z,69.50
2023-01-15T12:24:55.564Z,69.10
2023-01-15T12:27:47.866Z,69.20
2023-01-15T12:30:25.040Z,69.30
2023-01-15T12:33:03.643Z,69.20
2023-01-15T12:35:33.061Z,69.20
2023-01-15T12:38:11.818Z,69.40
2023-01-15T12:40:46.869Z,69.30
2023-01-15T12:43:38.686Z,69.10
2023-01-15T12:46:11.734Z,68.80
2023-01-15T12:48:51.337Z,68.30
2023-01-15T12:51:26.358Z,68.50
2023-01-15T12:53:58.930Z,68.60
2023-01-15T12:56:32.266Z,68.00
2023-01-15T12:59:07.457Z,67.60
2023-01-15T13:01:47.388Z,67.20
2023-01-15T13:04:24.483Z,66.60
2023-01-15T13:06:57.295Z,66.40
2023-01-15T13:09:39.119Z,66.00
2023-01-15T13:12:14.589Z,65.90
2023-01-15T13:14:46.247Z,65.70
2023-01-15T13:17:27.399Z,65.90
2023-01-15T13:20:11.206Z,65.60
2023-01-15T13:22:51.777Z,65.40
2023-01-15T13:25:41.727Z,65.80
2023-01-15T13:28:24.401Z,65.70
2023-01-15T13:31:03.860Z,65.60
2023-01-15T13:33:40.659Z,65.80
2023-01-15T13:36:16.232Z,65.80
2023-01-15T13:38:48.306Z,65.80
2023-01-15T13:41:42.583Z,65.70
2023-01-15T13:44:19.808Z,65.70
2023-01-15T13:46:49.749Z,65.20
2023-01-15T13:49:22.510Z,65.90
2023-01-15T13:51:53.763Z,64.70
2023-01-15T13:54:27.113Z,64.50
2023-01-15T13:56:55.521Z,64.20
2023-01-15T13:59:42.944Z,64.50
2023-01-15T14:02:28.846Z,63.70
2023-01-15T14:04:57.897Z,63.40
2023-01-15T14:07:37.252Z,63.40
2023-01-15T14:11:02.422Z,63.40
2023-01-15T14:14:02.304Z,63.40
2023-01-15T14:17:12.591Z,63.40
2023-01-15T14:24:59.518Z,63.00
2023-01-15T15:14:58.407Z,63.60
2023-01-15T15:18:15.688Z,63.80
2023-01-15T18:09:21.218Z,62.40
2023-01-15T18:24:22.501Z,62.60
2023-01-15T18:27:14.408Z,62.20
2023-01-15T18:30:21.889Z,62.30
2023-01-15T18:32:57.863Z,62.70
2023-01-15T18:36:46.921Z,62.50
2023-01-15T18:39:24.788Z,62.50
2023-01-15T18:42:41.231Z,62.50
2023-01-15T18:45:38.795Z,62.30
2023-01-15T18:48:12.751Z,62.50
2023-01-15T18:50:57.096Z,62.50
2023-01-15T18:53:37.663Z,62.10
2023-01-15T18:56:15.068Z,62.40
2023-01-15T19:00:25.782Z,62.60
2023-01-15T19:01:44.668Z,62.30
2023-01-15T19:04:51.578Z,62.10
2023-01-15T19:07:20.435Z,62.10
2023-01-15T19:09:49.075Z,62.20
2023-01-15T19:12:21.399Z,62.10
2023-01-15T19:15:09.625Z,62.10
2023-01-15T19:18:08.253Z,62.10
2023-01-15T19:20:47.143Z,61.90
2023-01-15T19:23:15.639Z,62.20
2023-01-15T19:25:46.309Z,61.90
2023-01-15T19:28:17.849Z,61.90
2023-01-15T19:35:19.381Z,61.70
2023-01-15T19:51:10.125Z,61.90
2023-01-15T19:54:27.376Z,61.60
2023-01-15T20:19:08.154Z,61.50
2023-01-15T20:31:03.559Z,62.10
2023-01-15T20:33:46.830Z,61.80
2023-01-15T20:39:40.502Z,62.00
2023-01-15T20:42:48.307Z,61.70
2023-01-15T20:51:46.348Z,61.50
2023-01-15T20:54:16.324Z,62.00
2023-01-15T21:03:03.324Z,61.90
2023-01-15T21:05:37.664Z,61.70
2023-01-15T21:08:18.395Z,61.80
2023-01-15T21:10:48.010Z,61.90
2023-01-15T21:13:17.146Z,61.80
2023-01-15T21:19:04.870Z,61.40
2023-01-15T22:00:28.273Z,61.30
2023-01-15T22:06:05.186Z,61.70
2023-01-15T22:08:35.448Z,62.00
2023-01-15T22:11:05.720Z,61.70
2023-01-15T22:13:58.391Z,61.80
2023-01-15T22:16:29.396Z,61.80
2023-01-15T22:19:26.641Z,61.90
2023-01-15T22:26:14.425Z,61.60
2023-01-15T22:29:26.104Z,61.50
2023-01-15T22:32:06.447Z,61.90
2023-01-15T22:35:12.661Z,61.70
2023-01-15T22:38:22.803Z,61.80
2023-01-15T22:41:25.598Z,61.60
2023-01-15T22:44:03.296Z,61.90
2023-01-15T22:46:37.383Z,61.90
2023-01-15T22:49:09.267Z,61.90
2023-01-15T22:54:39.039Z,62.10
2023-01-15T22:57:07.552Z,61.80
2023-01-15T23:00:08.646Z,62.10
2023-01-15T23:02:55.778Z,62.10
2023-01-15T23:05:39.914Z,62.40
2023-01-15T23:08:15.418Z,62.10
2023-01-15T23:10:51.051Z,62.40
2023-01-15T23:13:25.231Z,62.50
2023-01-15T23:16:02.680Z,62.70
2023-01-15T23:18:32.645Z,62.40
2023-01-15T23:21:10.266Z,62.80
2023-01-15T23:23:40.257Z,62.40
2023-01-15T23:26:11.602Z,62.20
2023-01-15T23:41:52.750Z,61.70
2023-01-15T23:48:16.828Z,61.50
2023-01-15T23:50:47.405Z,61.60
2023-01-15T23:53:17.516Z,61.50
